Time;durP1;ratioP1;P1;durP2;ratioP2;P2;SDS_P1;SDS_P2;PMS_P1;PMS_P2;Temp;Humidity;BMP_temperature;BMP_pressure;BME280_temperature;BME280_humidity;BME280_pressure;Samples;Min_cycle;Max_cycle;Signal;HPM_P1;HPM_P2
2024/03/28 00:01:27;;;;;;;24.50;4.83;;;11.50;99.90;;;;;;4177967;28;20036;-54
2024/03/28 00:03:29;;;;;;;12.47;3.17;;;11.60;99.90;;;;;;4178304;28;20037;-54
2024/03/28 00:05:30;;;;;;;29.77;5.47;;;11.60;99.90;;;;;;4178288;28;20029;-49
2024/03/28 00:07:31;;;;;;;18.33;3.30;;;11.60;99.90;;;;;;4178986;28;20033;-52
2024/03/28 00:09:32;;;;;;;16.97;3.77;;;11.60;99.90;;;;;;4178032;28;20091;-50
2024/03/28 00:11:34;;;;;;;17.13;3.87;;;11.60;99.90;;;;;;4177632;28;20025;-51
2024/03/28 00:13:35;;;;;;;22.73;4.40;;;11.60;99.90;;;;;;4163594;28;20041;-54
2024/03/28 00:15:36;;;;;;;13.90;3.73;;;11.60;99.90;;;;;;4172287;28;20466;-54
2024/03/28 00:17:40;;;;;;;17.77;4.07;;;11.70;99.90;;;;;;4177982;28;20025;-50
2024/03/28 00:19:41;;;;;;;18.97;3.80;;;11.70;99.90;;;;;;4178989;28;20033;-50
2024/03/28 00:21:42;;;;;;;15.70;4.53;;;11.70;99.90;;;;;;4174314;28;20486;-56
2024/03/28 00:23:43;;;;;;;17.17;4.43;;;11.70;99.90;;;;;;4162517;28;20423;-52
2024/03/28 00:25:51;;;;;;;20.70;4.13;;;11.70;99.90;;;;;;4161384;28;20494;-53
2024/03/28 00:27:53;;;;;;;19.13;4.20;;;11.70;99.90;;;;;;4162492;28;20021;-53
2024/03/28 00:29:54;;;;;;;17.60;3.70;;;11.70;99.90;;;;;;4161359;28;20033;-52
2024/03/28 00:31:55;;;;;;;15.73;4.33;;;11.70;99.90;;;;;;4161635;28;20084;-56
2024/03/28 00:33:56;;;;;;;24.27;5.73;;;11.70;99.90;;;;;;4175670;28;20504;-52
2024/03/28 00:35:58;;;;;;;19.87;4.23;;;11.60;99.90;;;;;;4177704;28;20114;-51
2024/03/28 00:37:59;;;;;;;20.67;3.53;;;11.70;99.90;;;;;;4176037;28;20579;-50
2024/03/28 00:40:00;;;;;;;24.97;4.93;;;11.90;99.90;;;;;;4177560;28;20087;-52
2024/03/28 00:42:01;;;;;;;27.80;6.63;;;11.90;99.90;;;;;;4178530;28;20106;-52
2024/03/28 00:44:03;;;;;;;26.07;4.37;;;12.00;99.90;;;;;;4177830;28;20021;-51
2024/03/28 00:46:04;;;;;;;22.73;4.07;;;12.00;99.90;;;;;;4178096;28;20037;-49
2024/03/28 00:48:06;;;;;;;15.07;3.33;;;12.10;99.90;;;;;;4177447;28;20040;-49
2024/03/28 00:50:07;;;;;;;22.33;5.20;;;12.20;99.90;;;;;;4178531;28;20021;-51
2024/03/28 00:52:09;;;;;;;29.03;4.03;;;12.40;99.90;;;;;;4177188;28;20037;-51
2024/03/28 00:54:10;;;;;;;29.60;6.40;;;12.60;99.90;;;;;;4176783;28;20041;-51
2024/03/28 00:56:11;;;;;;;20.87;3.50;;;12.80;99.90;;;;;;4169806;28;20384;-52
2024/03/28 00:58:13;;;;;;;23.33;3.30;;;12.90;99.90;;;;;;4161653;28;20347;-53
2024/03/28 01:00:15;;;;;;;29.90;4.80;;;13.10;99.90;;;;;;4160179;28;20186;-52
2024/03/28 01:02:16;;;;;;;23.40;4.83;;;13.20;99.90;;;;;;4161174;28;20091;-51
2024/03/28 01:04:18;;;;;;;17.17;4.20;;;13.30;99.90;;;;;;4161003;28;20393;-56
2024/03/28 01:06:19;;;;;;;22.33;3.80;;;13.20;99.90;;;;;;4160737;28;20041;-53
2024/03/28 01:08:20;;;;;;;18.10;3.37;;;13.10;99.90;;;;;;4161617;28;20536;-50
2024/03/28 01:10:21;;;;;;;15.83;4.50;;;13.10;99.90;;;;;;4160274;28;20034;-52
2024/03/28 01:12:23;;;;;;;21.57;4.23;;;13.10;99.90;;;;;;4161570;28;20829;-50
2024/03/28 01:14:24;;;;;;;20.07;3.93;;;13.10;99.90;;;;;;4160204;28;20037;-49
2024/03/28 01:16:25;;;;;;;16.13;4.97;;;12.90;99.90;;;;;;4161364;28;20039;-53
2024/03/28 01:18:26;;;;;;;23.73;4.37;;;12.50;99.90;;;;;;4160159;28;20405;-52
2024/03/28 01:20:27;;;;;;;18.67;5.03;;;12.10;99.90;;;;;;4176623;28;20661;-58
2024/03/28 01:22:29;;;;;;;18.03;3.73;;;11.80;99.90;;;;;;4176912;28;20045;-53
2024/03/28 01:24:30;;;;;;;22.97;4.23;;;11.50;99.90;;;;;;4177525;28;20555;-54
2024/03/28 01:26:31;;;;;;;19.43;3.50;;;11.40;99.90;;;;;;4176409;28;20044;-49
2024/03/28 01:28:32;;;;;;;12.67;3.20;;;11.20;99.90;;;;;;4177762;28;20621;-55
2024/03/28 01:30:34;;;;;;;26.70;4.40;;;11.20;99.90;;;;;;4176419;28;20033;-53
2024/03/28 01:32:35;;;;;;;24.63;3.63;;;11.10;99.90;;;;;;4175567;28;20060;-54
2024/03/28 01:34:36;;;;;;;15.63;4.50;;;11.10;99.90;;;;;;4176738;28;20028;-52
2024/03/28 01:36:38;;;;;;;22.30;4.97;;;11.10;99.90;;;;;;4172057;28;20095;-56
2024/03/28 01:38:39;;;;;;;19.93;4.13;;;11.20;99.90;;;;;;4161424;28;20041;-53
2024/03/28 01:40:40;;;;;;;14.97;3.27;;;11.30;99.90;;;;;;4160422;28;20107;-56
2024/03/28 01:42:41;;;;;;;16.00;3.60;;;11.40;99.90;;;;;;4161463;28;20123;-55
2024/03/28 01:44:43;;;;;;;17.57;3.33;;;11.50;99.90;;;;;;4163573;28;20033;-56
2024/03/28 01:46:45;;;;;;;16.53;3.50;;;11.50;99.90;;;;;;4168636;28;20030;-55
2024/03/28 01:48:48;;;;;;;16.47;3.60;;;11.50;99.90;;;;;;4160401;28;20041;-55
2024/03/28 01:50:49;;;;;;;19.37;4.73;;;11.50;99.90;;;;;;4160894;28;20107;-57
2024/03/28 01:52:51;;;;;;;16.40;4.10;;;11.40;99.90;;;;;;4160151;28;20424;-52
2024/03/28 01:54:53;;;;;;;17.87;4.40;;;11.40;99.90;;;;;;4160689;28;20099;-49
2024/03/28 01:56:55;;;;;;;18.40;3.40;;;11.40;99.90;;;;;;4163493;28;20053;-51
2024/03/28 01:58:57;;;;;;;12.90;3.23;;;11.40;99.90;;;;;;4168286;28;20091;-53
2024/03/28 02:00:59;;;;;;;15.63;2.90;;;11.40;99.90;;;;;;4175589;28;20049;-55
2024/03/28 02:03:00;;;;;;;16.17;3.07;;;11.40;99.90;;;;;;4169768;28;20116;-55
2024/03/28 02:05:01;;;;;;;16.53;2.67;;;11.40;99.90;;;;;;4172193;28;20350;-51
2024/03/28 02:07:03;;;;;;;12.20;3.23;;;11.30;99.90;;;;;;4176974;28;20021;-52
2024/03/28 02:09:06;;;;;;;13.07;3.30;;;11.40;99.90;;;;;;4176986;28;20055;-52
2024/03/28 02:11:08;;;;;;;20.80;4.50;;;11.30;99.90;;;;;;4176779;28;20151;-54
2024/03/28 02:13:11;;;;;;;14.43;3.07;;;11.10;99.90;;;;;;4177281;28;20579;-54
2024/03/28 02:15:13;;;;;;;18.03;3.53;;;10.90;99.90;;;;;;4168286;28;20045;-52
2024/03/28 02:17:14;;;;;;;16.00;3.07;;;10.80;99.90;;;;;;4160881;28;20565;-54
2024/03/28 02:19:15;;;;;;;11.10;2.97;;;10.80;99.90;;;;;;4159844;28;20458;-55
2024/03/28 02:21:16;;;;;;;14.10;3.10;;;10.70;99.90;;;;;;4160703;28;20068;-56
2024/03/28 02:23:19;;;;;;;14.77;3.80;;;10.70;99.90;;;;;;4159767;28;20071;-55
2024/03/28 02:25:20;;;;;;;15.03;3.50;;;10.70;99.90;;;;;;4170172;28;20103;-50
2024/03/28 02:27:21;;;;;;;12.33;2.80;;;10.70;99.90;;;;;;4176184;28;20033;-55
2024/03/28 02:29:23;;;;;;;15.13;3.43;;;10.70;99.90;;;;;;4177367;28;20111;-57
2024/03/28 02:31:24;;;;;;;14.40;3.93;;;10.70;99.90;;;;;;4176152;28;20087;-53
2024/03/28 02:33:25;;;;;;;17.13;3.30;;;10.70;99.90;;;;;;4176939;28;20036;-56
2024/03/28 02:35:27;;;;;;;17.17;3.63;;;10.70;99.90;;;;;;4176208;28;20033;-54
2024/03/28 02:37:28;;;;;;;20.17;3.07;;;10.80;99.90;;;;;;4176511;28;20083;-56
2024/03/28 02:39:29;;;;;;;25.40;3.97;;;10.70;99.90;;;;;;4177171;28;20029;-51
2024/03/28 02:41:30;;;;;;;19.63;3.20;;;10.60;99.90;;;;;;4176533;28;20567;-56
2024/03/28 02:43:32;;;;;;;13.13;2.90;;;10.60;99.90;;;;;;4176704;28;20033;-55
2024/03/28 02:45:33;;;;;;;15.87;3.67;;;10.60;99.90;;;;;;4176218;28;20132;-52
2024/03/28 02:47:36;;;;;;;21.00;4.27;;;10.60;99.90;;;;;;4177267;28;20033;-53
2024/03/28 02:49:37;;;;;;;17.97;3.20;;;10.60;99.90;;;;;;4176032;28;20087;-54
2024/03/28 02:51:38;;;;;;;14.53;2.70;;;10.60;99.90;;;;;;4184189;28;20740;-53
2024/03/28 02:53:40;;;;;;;17.17;3.97;;;10.60;99.90;;;;;;4192624;28;20537;-52
2024/03/28 02:55:41;;;;;;;11.93;3.23;;;10.60;99.90;;;;;;4193640;28;20484;-50
2024/03/28 02:57:42;;;;;;;18.83;4.07;;;10.70;99.90;;;;;;4192300;28;20110;-55
2024/03/28 02:59:44;;;;;;;13.63;2.83;;;10.70;99.90;;;;;;4189055;28;20032;-52
2024/03/28 03:01:45;;;;;;;23.13;3.43;;;10.60;99.90;;;;;;4158924;28;20049;-49
2024/03/28 03:03:46;;;;;;;14.90;3.27;;;10.60;99.90;;;;;;4164241;28;20034;-52
2024/03/28 03:05:51;;;;;;;16.73;3.33;;;10.60;99.90;;;;;;4169544;28;20033;-52
2024/03/28 03:07:52;;;;;;;17.97;3.70;;;10.50;99.90;;;;;;4176495;28;20057;-51
2024/03/28 03:09:54;;;;;;;22.00;3.30;;;10.50;99.90;;;;;;4165684;28;20034;-54
2024/03/28 03:11:55;;;;;;;16.37;3.03;;;10.50;99.90;;;;;;4159818;28;20041;-50
2024/03/28 03:13:56;;;;;;;20.70;2.93;;;10.50;99.90;;;;;;4160180;28;20049;-52
2024/03/28 03:15:59;;;;;;;17.73;3.53;;;10.40;99.90;;;;;;4159907;28;20083;-49
2024/03/28 03:18:01;;;;;;;16.33;3.33;;;10.50;99.90;;;;;;4160392;28;20037;-53
2024/03/28 03:20:07;;;;;;;14.80;3.67;;;10.40;99.90;;;;;;4160224;28;20079;-47
2024/03/28 03:22:08;;;;;;;19.93;4.37;;;10.50;99.90;;;;;;4173745;28;20060;-54
2024/03/28 03:24:12;;;;;;;17.60;3.30;;;10.50;99.90;;;;;;4178865;28;20083;-53
2024/03/28 03:26:20;;;;;;;20.43;3.77;;;10.50;99.90;;;;;;4179433;28;20083;-56
2024/03/28 03:35:20;;;;;;;11.60;2.90;;;10.70;99.90;;;;;;4179380;28;20063;-53
2024/03/28 03:37:24;;;;;;;18.23;3.70;;;10.70;99.90;;;;;;4178633;28;20421;-52
2024/03/28 03:39:25;;;;;;;23.83;4.83;;;10.70;99.90;;;;;;4179562;28;20103;-52
2024/03/28 03:41:26;;;;;;;23.03;4.37;;;10.70;99.90;;;;;;4178243;28;20053;-49
2024/03/28 03:43:27;;;;;;;19.40;3.93;;;10.80;99.90;;;;;;4179390;28;20094;-50
2024/03/28 03:45:29;;;;;;;17.00;3.33;;;10.80;99.90;;;;;;4177725;28;20412;-51
2024/03/28 03:47:30;;;;;;;11.60;3.83;;;10.80;99.90;;;;;;4179581;28;20534;-56
2024/03/28 03:49:31;;;;;;;13.53;3.20;;;10.90;99.90;;;;;;4178004;28;20099;-56
2024/03/28 03:51:33;;;;;;;20.00;4.57;;;10.90;99.90;;;;;;4179232;28;20097;-55
2024/03/28 03:53:34;;;;;;;21.87;4.37;;;10.90;99.90;;;;;;4178227;28;20029;-53
2024/03/28 03:55:36;;;;;;;25.00;4.87;;;10.80;99.90;;;;;;4178825;28;20100;-50
2024/03/28 03:57:37;;;;;;;15.13;3.63;;;10.80;99.90;;;;;;4175640;28;20078;-52
2024/03/28 03:59:38;;;;;;;17.47;3.77;;;10.70;99.90;;;;;;4162638;28;20045;-58
2024/03/28 04:01:40;;;;;;;20.53;4.50;;;10.70;99.90;;;;;;4161911;28;20111;-50
2024/03/28 04:03:41;;;;;;;28.03;4.40;;;10.80;99.90;;;;;;4162456;28;20417;-56
2024/03/28 04:05:43;;;;;;;10.47;3.40;;;10.80;99.90;;;;;;4162591;28;20398;-55
2024/03/28 04:07:45;;;;;;;11.67;3.87;;;10.70;99.90;;;;;;4166993;28;20051;-52
2024/03/28 04:09:47;;;;;;;22.50;4.37;;;10.70;99.90;;;;;;4173687;28;20119;-54
2024/03/28 04:11:48;;;;;;;25.43;4.50;;;10.70;99.90;;;;;;4166351;28;20527;-52
2024/03/28 04:13:49;;;;;;;19.47;3.93;;;10.70;99.90;;;;;;4169332;28;20579;-53
2024/03/28 04:15:50;;;;;;;20.07;3.27;;;10.70;99.90;;;;;;4161016;28;20034;-55
2024/03/28 04:17:52;;;;;;;15.57;4.67;;;10.80;99.90;;;;;;4171653;28;20021;-48
2024/03/28 04:19:53;;;;;;;21.30;4.10;;;10.70;99.90;;;;;;4177441;28;20396;-50
2024/03/28 04:21:55;;;;;;;17.80;4.10;;;10.70;99.90;;;;;;4178484;28;20111;-51
2024/03/28 04:23:57;;;;;;;17.77;3.37;;;10.70;99.90;;;;;;4177302;28;20048;-55
2024/03/28 04:26:00;;;;;;;13.37;3.47;;;10.60;99.90;;;;;;4172280;28;20088;-55
2024/03/28 04:28:01;;;;;;;22.83;4.90;;;10.60;99.90;;;;;;4161079;28;20508;-56
2024/03/28 04:30:02;;;;;;;18.20;3.70;;;10.70;99.90;;;;;;4161886;28;20030;-55
2024/03/28 04:32:04;;;;;;;19.53;4.20;;;10.70;99.90;;;;;;4160470;28;20037;-55
2024/03/28 04:34:05;;;;;;;17.93;4.00;;;10.80;99.90;;;;;;4161782;28;20068;-57
2024/03/28 04:36:06;;;;;;;24.63;4.63;;;10.80;99.90;;;;;;4176711;28;20025;-52
2024/03/28 04:38:08;;;;;;;25.07;3.87;;;10.80;99.90;;;;;;4177743;28;20040;-52
2024/03/28 04:40:11;;;;;;;18.97;3.90;;;10.80;99.90;;;;;;4178089;28;20090;-52
2024/03/28 04:42:12;;;;;;;21.97;4.00;;;10.80;99.90;;;;;;4177035;28;20512;-53
2024/03/28 04:44:13;;;;;;;17.60;3.73;;;10.70;99.90;;;;;;4171272;28;20049;-53
2024/03/28 04:46:15;;;;;;;17.37;3.97;;;10.80;99.90;;;;;;4170440;28;20186;-53
2024/03/28 04:48:16;;;;;;;26.03;3.93;;;10.80;99.90;;;;;;4178387;28;20504;-52
2024/03/28 04:50:18;;;;;;;24.90;5.20;;;10.70;99.90;;;;;;4177072;28;20071;-52
2024/03/28 04:52:20;;;;;;;29.23;4.67;;;10.80;99.90;;;;;;4177873;28;20461;-52
2024/03/28 04:54:21;;;;;;;34.10;6.70;;;10.70;99.90;;;;;;4177200;28;20021;-55
2024/03/28 04:56:22;;;;;;;18.17;4.20;;;10.70;99.90;;;;;;4177802;28;20041;-56
2024/03/28 04:58:25;;;;;;;21.03;4.50;;;10.70;99.90;;;;;;4176730;28;20053;-56
2024/03/28 05:00:26;;;;;;;15.70;4.27;;;10.70;99.90;;;;;;4177592;28;20107;-56
2024/03/28 05:02:27;;;;;;;30.30;4.27;;;10.80;99.90;;;;;;4175781;28;20155;-57
2024/03/28 05:04:29;;;;;;;21.27;3.90;;;10.80;99.90;;;;;;4177859;28;20440;-57
2024/03/28 05:06:30;;;;;;;18.37;3.53;;;10.80;99.90;;;;;;4177491;28;20029;-54
2024/03/28 05:08:31;;;;;;;21.10;3.90;;;10.80;99.90;;;;;;4178160;28;20444;-58
2024/03/28 05:10:36;;;;;;;29.03;4.30;;;10.90;99.90;;;;;;4177477;28;20416;-55
2024/03/28 05:12:37;;;;;;;29.67;5.03;;;11.00;99.90;;;;;;4174308;28;20456;-59
2024/03/28 05:14:39;;;;;;;22.43;6.03;;;11.00;99.90;;;;;;4173547;28;20033;-59
2024/03/28 05:16:41;;;;;;;24.53;4.53;;;11.10;99.90;;;;;;4167774;28;20091;-57
2024/03/28 05:18:43;;;;;;;23.50;6.03;;;11.10;99.90;;;;;;4177276;28;20037;-57
2024/03/28 05:20:44;;;;;;;28.87;5.90;;;11.10;99.90;;;;;;4168677;28;20045;-55
2024/03/28 05:22:45;;;;;;;23.83;5.50;;;11.20;99.90;;;;;;4160523;28;20045;-58
2024/03/28 05:24:46;;;;;;;22.67;4.23;;;11.20;99.90;;;;;;4166920;28;20473;-57
2024/03/28 05:26:48;;;;;;;16.87;4.20;;;11.30;99.90;;;;;;4173053;28;20422;-59
2024/03/28 05:28:49;;;;;;;18.47;4.27;;;11.30;99.90;;;;;;4166314;28;20029;-58
2024/03/28 05:30:52;;;;;;;29.77;7.10;;;11.40;99.90;;;;;;4160604;28;20048;-57
2024/03/28 05:32:53;;;;;;;27.13;5.30;;;11.40;99.90;;;;;;4178023;28;20037;-55
2024/03/28 05:34:54;;;;;;;16.47;4.07;;;11.40;99.90;;;;;;4193826;28;20140;-56
2024/03/28 05:36:55;;;;;;;20.30;5.93;;;11.40;99.90;;;;;;4193413;28;20032;-58
2024/03/28 05:38:57;;;;;;;24.57;5.20;;;11.40;99.90;;;;;;4193801;28;20389;-56
2024/03/28 05:40:58;;;;;;;28.80;4.20;;;11.40;99.90;;;;;;4193178;28;20102;-57
2024/03/28 05:42:59;;;;;;;22.27;4.00;;;11.40;99.90;;;;;;4192665;28;20041;-55
2024/03/28 05:45:01;;;;;;;20.27;4.00;;;11.40;99.90;;;;;;4185694;28;20041;-55
2024/03/28 05:47:02;;;;;;;20.37;3.67;;;11.50;99.90;;;;;;4174409;28;20456;-53
2024/03/28 05:49:03;;;;;;;20.70;4.70;;;11.60;99.90;;;;;;4160735;28;20091;-59
2024/03/28 05:51:04;;;;;;;21.40;4.27;;;11.60;99.90;;;;;;4159416;28;20082;-54
2024/03/28 05:53:05;;;;;;;26.00;4.73;;;11.60;99.90;;;;;;4163481;28;20040;-57
2024/03/28 05:55:07;;;;;;;24.53;4.57;;;11.60;99.90;;;;;;4174808;28;20037;-57
2024/03/28 05:57:08;;;;;;;21.37;4.33;;;11.70;99.90;;;;;;4175797;28;20037;-57
2024/03/28 05:59:09;;;;;;;19.80;4.20;;;11.70;99.90;;;;;;4174876;28;20029;-55
2024/03/28 06:01:11;;;;;;;18.00;3.87;;;11.70;99.90;;;;;;4175426;28;20627;-57
2024/03/28 06:03:13;;;;;;;19.33;4.03;;;11.70;99.90;;;;;;4174723;28;20535;-56
2024/03/28 06:05:14;;;;;;;18.47;4.73;;;11.70;99.90;;;;;;4175807;28;20033;-58
2024/03/28 06:07:15;;;;;;;29.33;4.37;;;11.70;99.90;;;;;;4174663;28;20045;-56
2024/03/28 06:09:17;;;;;;;28.67;5.60;;;11.70;99.90;;;;;;4175365;28;20041;-57
2024/03/28 06:11:18;;;;;;;25.47;4.73;;;11.80;99.90;;;;;;4177113;28;20051;-57
2024/03/28 06:13:21;;;;;;;31.20;5.30;;;11.80;99.90;;;;;;4175842;28;20033;-56
2024/03/28 06:15:22;;;;;;;29.37;4.87;;;11.90;99.90;;;;;;4176301;28;20098;-56
2024/03/28 06:17:23;;;;;;;22.03;4.70;;;11.90;99.90;;;;;;4175838;28;20084;-57
2024/03/28 06:19:25;;;;;;;27.13;4.77;;;11.90;99.90;;;;;;4176791;28;20045;-56
2024/03/28 06:21:26;;;;;;;28.73;5.77;;;12.00;99.90;;;;;;4176074;28;20493;-53
2024/03/28 06:23:28;;;;;;;30.17;5.37;;;12.00;99.90;;;;;;4176387;28;20041;-56
2024/03/28 06:25:29;;;;;;;26.53;4.63;;;12.00;99.90;;;;;;4175700;28;20044;-57
2024/03/28 06:27:30;;;;;;;34.23;5.60;;;12.00;99.90;;;;;;4176929;28;20367;-58
2024/03/28 06:29:39;;;;;;;25.20;5.23;;;12.00;99.90;;;;;;4176082;28;20437;-55
2024/03/28 06:31:40;;;;;;;21.37;6.03;;;12.00;99.90;;;;;;4177449;28;20070;-53
2024/03/28 06:33:41;;;;;;;36.40;7.77;;;12.10;99.90;;;;;;4175840;28;20480;-50
2024/03/28 06:35:43;;;;;;;39.20;7.50;;;12.10;99.90;;;;;;4176483;28;20029;-57
2024/03/28 06:37:44;;;;;;;33.07;6.27;;;12.10;99.90;;;;;;4169385;28;20520;-55
2024/03/28 06:39:46;;;;;;;34.83;5.27;;;12.20;99.90;;;;;;4170602;28;20029;-56
2024/03/28 06:41:47;;;;;;;30.13;6.70;;;12.20;99.90;;;;;;4174445;28;20122;-55
2024/03/28 06:43:49;;;;;;;31.63;5.40;;;12.30;99.90;;;;;;4160932;28;20099;-56
2024/03/28 06:45:51;;;;;;;21.57;5.67;;;12.30;99.90;;;;;;4169444;28;20079;-56
2024/03/28 06:47:52;;;;;;;23.93;5.60;;;12.40;99.90;;;;;;4171161;28;20033;-55
2024/03/28 06:49:53;;;;;;;20.97;4.73;;;12.40;99.90;;;;;;4171332;28;20138;-55
2024/03/28 06:51:54;;;;;;;25.53;6.17;;;12.50;99.90;;;;;;4169942;28;20416;-56
2024/03/28 06:53:55;;;;;;;24.33;5.00;;;12.60;99.90;;;;;;4170880;28;20074;-53
2024/03/28 06:55:57;;;;;;;30.83;5.40;;;12.50;99.90;;;;;;4173012;28;20504;-55
2024/03/28 06:57:58;;;;;;;35.33;6.73;;;12.60;99.90;;;;;;4175483;28;20037;-56
2024/03/28 06:59:59;;;;;;;30.13;4.83;;;12.60;99.90;;;;;;4173120;28;20040;-53
2024/03/28 07:02:01;;;;;;;28.80;5.27;;;12.60;99.90;;;;;;4174434;28;20103;-56
2024/03/28 07:04:02;;;;;;;12.13;4.10;;;12.60;99.90;;;;;;4173818;28;20540;-56
2024/03/28 07:06:03;;;;;;;26.23;4.73;;;12.60;99.90;;;;;;4164674;28;20041;-52
2024/03/28 07:08:05;;;;;;;16.40;4.50;;;12.60;99.90;;;;;;4173900;28;20041;-55
2024/03/28 07:10:06;;;;;;;25.10;5.13;;;12.60;99.90;;;;;;4171459;28;20563;-56
2024/03/28 07:12:08;;;;;;;24.97;5.40;;;12.60;99.90;;;;;;4170006;28;20041;-57
2024/03/28 07:14:09;;;;;;;22.33;5.47;;;12.50;99.90;;;;;;4170711;28;20095;-58
2024/03/28 07:16:11;;;;;;;22.57;5.83;;;12.50;99.90;;;;;;4174599;28;20060;-53
2024/03/28 07:18:12;;;;;;;24.30;5.13;;;12.50;99.90;;;;;;4173879;28;20090;-52
2024/03/28 07:20:13;;;;;;;29.73;5.27;;;12.40;99.90;;;;;;4174775;28;20428;-56
2024/03/28 07:22:14;;;;;;;22.83;5.47;;;12.30;99.90;;;;;;4172739;28;20033;-53
2024/03/28 07:24:15;;;;;;;23.43;5.27;;;12.30;99.90;;;;;;4175249;28;20029;-53
2024/03/28 07:26:17;;;;;;;22.60;6.13;;;12.20;99.90;;;;;;4172257;28;20083;-54
2024/03/28 07:28:18;;;;;;;24.30;6.93;;;12.10;99.90;;;;;;4178605;28;20037;-51
2024/03/28 07:30:19;;;;;;;20.37;6.10;;;12.10;99.90;;;;;;4178283;28;20087;-58
2024/03/28 07:32:22;;;;;;;21.53;5.83;;;11.90;99.90;;;;;;4179004;28;20322;-58
2024/03/28 07:34:23;;;;;;;27.53;6.20;;;11.80;99.90;;;;;;4173563;28;20393;-55
2024/03/28 07:36:24;;;;;;;30.73;7.20;;;11.70;99.90;;;;;;4178833;28;20099;-53
2024/03/28 07:38:26;;;;;;;24.43;7.13;;;11.60;99.90;;;;;;4177567;28;20090;-59
2024/03/28 07:40:27;;;;;;;24.60;6.33;;;11.50;99.90;;;;;;4180025;28;20016;-57
2024/03/28 07:42:29;;;;;;;19.90;6.23;;;11.50;99.90;;;;;;4178503;28;20583;-52
2024/03/28 07:44:30;;;;;;;25.23;6.63;;;11.50;99.90;;;;;;4179130;28;20033;-55
2024/03/28 07:46:31;;;;;;;23.27;6.60;;;11.50;99.90;;;;;;4178245;28;20029;-54
2024/03/28 07:48:35;;;;;;;21.97;5.43;;;11.50;99.90;;;;;;4178200;28;20037;-51
2024/03/28 07:50:39;;;;;;;24.53;6.30;;;11.50;99.90;;;;;;4178670;28;20159;-56
2024/03/28 07:52:43;;;;;;;23.47;5.70;;;11.50;99.90;;;;;;4177941;28;20040;-55
2024/03/28 07:54:50;;;;;;;19.77;6.30;;;11.50;99.90;;;;;;4147202;28;20622;-57
2024/03/28 07:56:53;;;;;;;23.03;6.20;;;11.50;99.90;;;;;;4134701;28;20119;-58
2024/03/28 07:58:55;;;;;;;27.57;8.20;;;11.50;99.90;;;;;;4174744;28;20722;-55
2024/03/28 08:01:14;;;;;;;30.60;5.17;;;11.50;99.90;;;;;;4171090;28;20057;-53
2024/03/28 08:03:18;;;;;;;24.67;6.00;;;11.50;99.90;;;;;;4166005;28;20119;-55
2024/03/28 08:05:20;;;;;;;18.00;4.90;;;11.60;99.90;;;;;;4175514;28;20033;-56
2024/03/28 08:07:24;;;;;;;21.37;5.30;;;11.60;99.90;;;;;;4177789;28;20804;-54
2024/03/28 08:09:26;;;;;;;20.20;5.23;;;11.50;99.90;;;;;;4178111;28;20452;-57
2024/03/28 08:11:27;;;;;;;27.20;5.53;;;11.40;99.90;;;;;;4175164;28;20037;-51
2024/03/28 08:13:28;;;;;;;19.67;5.70;;;11.40;99.90;;;;;;4169686;28;20479;-53
2024/03/28 08:15:33;;;;;;;24.87;6.87;;;11.40;99.90;;;;;;4172831;28;20048;-57
2024/03/28 08:17:37;;;;;;;23.57;5.30;;;11.40;99.90;;;;;;4170952;28;20482;-58
2024/03/28 08:19:39;;;;;;;23.40;5.87;;;11.40;99.90;;;;;;4175799;28;20063;-55
2024/03/28 08:21:40;;;;;;;22.03;3.87;;;11.40;99.90;;;;;;4168271;28;20079;-57
2024/03/28 08:23:42;;;;;;;15.47;4.43;;;11.40;99.90;;;;;;4178739;28;20377;-54
2024/03/28 08:25:43;;;;;;;17.47;5.10;;;11.40;99.90;;;;;;4174604;28;20266;-57
2024/03/28 08:27:44;;;;;;;16.47;3.87;;;11.40;99.90;;;;;;4172295;28;20037;-56
2024/03/28 08:29:46;;;;;;;12.60;3.07;;;11.40;99.90;;;;;;4162017;28;20422;-56
2024/03/28 08:31:47;;;;;;;17.67;3.67;;;11.40;99.90;;;;;;4163183;28;20107;-57
2024/03/28 08:33:48;;;;;;;7.17;1.83;;;11.40;99.90;;;;;;4178945;28;20169;-58
2024/03/28 08:35:50;;;;;;;25.77;9.40;;;11.40;99.90;;;;;;4177517;28;20037;-54
2024/03/28 08:37:53;;;;;;;20.20;6.80;;;11.40;99.90;;;;;;4178315;28;20094;-53
2024/03/28 08:39:55;;;;;;;20.90;4.73;;;11.40;99.90;;;;;;4177783;28;20074;-56
2024/03/28 08:41:56;;;;;;;22.00;4.70;;;11.40;99.90;;;;;;4179261;28;20448;-55
2024/03/28 08:43:58;;;;;;;14.13;3.10;;;11.40;99.90;;;;;;4172172;28;20437;-55
2024/03/28 08:45:59;;;;;;;12.23;2.73;;;11.30;99.90;;;;;;4184088;28;20048;-55
2024/03/28 08:48:05;;;;;;;15.23;3.70;;;11.10;99.90;;;;;;4182119;28;20041;-55
2024/03/28 08:50:07;;;;;;;15.07;4.67;;;11.10;99.90;;;;;;4178566;28;20037;-57
2024/03/28 08:52:08;;;;;;;5.30;1.93;;;11.00;99.90;;;;;;4177111;28;20037;-56
2024/03/28 08:54:12;;;;;;;10.27;2.03;;;11.00;99.90;;;;;;4178167;28;20076;-56
2024/03/28 08:56:14;;;;;;;7.33;1.90;;;10.90;99.90;;;;;;4177260;28;20403;-57
2024/03/28 08:58:15;;;;;;;8.27;3.13;;;10.90;99.90;;;;;;4177869;28;20029;-58
2024/03/28 09:00:19;;;;;;;15.27;3.57;;;10.90;99.90;;;;;;4178009;28;20044;-58
2024/03/28 09:08:36;;;;;;;7.60;2.40;;;10.90;99.90;;;;;;4105630;28;20111;-56
2024/03/28 09:10:39;;;;;;;8.87;3.70;;;10.80;99.90;;;;;;4133115;28;20037;-55
2024/03/28 09:12:40;;;;;;;22.70;9.50;;;10.90;99.90;;;;;;4171573;28;20053;-53
2024/03/28 09:14:41;;;;;;;13.10;4.90;;;10.80;99.90;;;;;;4167005;28;20473;-58
2024/03/28 09:16:42;;;;;;;11.10;4.70;;;10.80;99.90;;;;;;4173653;28;20521;-55
2024/03/28 09:18:44;;;;;;;14.53;4.00;;;10.70;99.90;;;;;;4176600;28;20072;-55
2024/03/28 09:20:45;;;;;;;15.57;5.20;;;10.70;99.90;;;;;;4170354;28;20029;-54
2024/03/28 09:22:46;;;;;;;22.57;5.73;;;10.60;99.90;;;;;;4161207;28;20049;-57
2024/03/28 09:24:48;;;;;;;8.50;2.73;;;10.60;99.90;;;;;;4171715;28;20037;-57
2024/03/28 09:26:49;;;;;;;13.60;3.60;;;10.50;99.90;;;;;;4177429;28;20040;-57
2024/03/28 09:28:55;;;;;;;7.70;2.80;;;10.50;99.90;;;;;;4176185;28;20378;-55
2024/03/28 09:30:56;;;;;;;13.93;4.53;;;10.50;99.90;;;;;;4177766;28;20029;-53
2024/03/28 09:32:57;;;;;;;13.47;4.33;;;10.50;99.90;;;;;;4176864;28;20037;-55
2024/03/28 09:34:59;;;;;;;11.87;3.90;;;10.50;99.90;;;;;;4165714;28;20041;-57
2024/03/28 09:37:01;;;;;;;17.93;4.10;;;10.60;99.90;;;;;;4159993;28;20103;-57
2024/03/28 09:39:02;;;;;;;9.40;4.17;;;10.60;99.90;;;;;;4164504;28;20355;-58
2024/03/28 09:41:16;;;;;;;10.50;4.87;;;10.60;99.90;;;;;;4176852;28;20098;-55
2024/03/28 09:43:18;;;;;;;12.03;4.83;;;10.60;99.90;;;;;;4178163;28;20094;-56
2024/03/28 09:45:20;;;;;;;9.43;4.13;;;10.50;99.90;;;;;;4176505;28;20021;-53
2024/03/28 09:47:26;;;;;;;15.23;5.07;;;10.60;99.90;;;;;;4177895;28;20091;-55
2024/03/28 09:49:29;;;;;;;11.73;3.63;;;10.60;99.90;;;;;;4176431;28;20087;-56
2024/03/28 09:51:30;;;;;;;9.83;3.97;;;10.60;99.90;;;;;;4177318;28;20033;-59
2024/03/28 09:53:35;;;;;;;14.20;4.23;;;10.60;99.90;;;;;;4175686;28;20509;-58
2024/03/28 09:55:37;;;;;;;9.20;3.80;;;10.60;99.90;;;;;;4176609;28;20079;-56
2024/03/28 09:57:38;;;;;;;15.43;4.90;;;10.60;99.90;;;;;;4176676;28;20075;-60
2024/03/28 09:59:40;;;;;;;7.83;3.10;;;10.70;99.90;;;;;;4176645;28;20063;-56
2024/03/28 10:01:44;;;;;;;3.90;2.60;;;10.70;99.90;;;;;;4177150;28;20103;-58
2024/03/28 10:03:53;;;;;;;7.17;2.73;;;10.70;99.90;;;;;;4176547;28;20060;-57
2024/03/28 10:05:55;;;;;;;4.03;1.97;;;10.70;99.90;;;;;;4159986;28;20824;-59
2024/03/28 10:07:57;;;;;;;4.63;1.20;;;10.80;99.90;;;;;;4160998;28;20038;-59
2024/03/28 10:09:59;;;;;;;12.03;2.97;;;10.90;99.90;;;;;;4174369;28;20033;-56
2024/03/28 10:12:10;;;;;;;6.13;2.20;;;11.10;99.90;;;;;;4176333;28;20130;-58
2024/03/28 10:14:12;;;;;;;;;;;11.20;99.90;;;;;;4177171;28;20041;-57
2024/03/28 10:16:15;;;;;;;7.97;2.67;;;11.30;99.90;;;;;;4176498;28;19908;-58
2024/03/28 10:18:17;;;;;;;7.97;4.20;;;11.40;99.90;;;;;;4176959;28;20045;-57
2024/03/28 10:20:20;;;;;;;8.87;4.20;;;11.50;99.90;;;;;;4175794;28;20335;-58
2024/03/28 10:22:21;;;;;;;6.37;2.83;;;11.70;99.90;;;;;;4177104;28;20157;-58
2024/03/28 10:24:23;;;;;;;5.60;2.40;;;11.90;99.90;;;;;;4175887;28;20041;-55
2024/03/28 10:26:29;;;;;;;5.33;2.53;;;12.00;99.90;;;;;;4177140;28;20102;-57
2024/03/28 10:28:32;;;;;;;10.20;2.20;;;12.00;99.90;;;;;;4175637;28;20077;-59
2024/03/28 10:30:33;;;;;;;5.40;1.67;;;12.10;99.90;;;;;;4178523;28;20041;-54
2024/03/28 10:32:35;;;;;;;3.43;1.63;;;12.20;99.90;;;;;;4183137;28;20488;-59
2024/03/28 10:34:36;;;;;;;7.30;2.03;;;12.40;99.90;;;;;;4195540;28;20346;-59
2024/03/28 10:36:37;;;;;;;6.37;2.40;;;12.70;99.90;;;;;;4165403;28;20417;-58
2024/03/28 10:38:39;;;;;;;6.70;1.90;;;13.10;99.90;;;;;;4178102;28;20411;-56
2024/03/28 10:40:41;;;;;;;3.30;1.73;;;13.40;99.90;;;;;;4177849;28;20049;-60